Terminal Aerodrome Forecast
Issued by NWS

Home | Current Version | Previous Version | Graphics & Text | Print | Product List | Glossary On
Versions: 1 2 3 4 5 6 7 8 9 10 11 12 13 14 15 16 17 18 19 20 21
154
FTUS43 KIWX 131019 AAA
TAFSBN
TAF AMD
KSBN 131019Z 1310/1406 31012KT 5SM -SHSN SCT020 OVC050
      TEMPO 1311/1315 1SM -SHSN OVC020
     FM132200 29007KT P6SM BKN035=

USA.gov is the U.S. government's official web portal to all federal, state and local government web resources and services.